Time;durP1;ratioP1;P1;durP2;ratioP2;P2;SDS_P1;SDS_P2;PMS_P1;PMS_P2;Temp;Humidity;BMP_temperature;BMP_pressure;BME280_temperature;BME280_humidity;BME280_pressure;Samples;Min_cycle;Max_cycle;Signal;HPM_P1;HPM_P2
2021/08/10 00:37:47;;;;;;;9.60;4.22;;;15.20;99.90;;;;;;4982618;23;20445;-95
2021/08/10 00:41:19;;;;;;;5.60;3.72;;;15.20;99.90;;;;;;4954721;23;20849;-95
2021/08/10 00:44:41;;;;;;;9.50;4.28;;;15.20;99.90;;;;;;4955111;28;20439;-95
2021/08/10 00:47:48;;;;;;;8.73;3.90;;;15.10;99.90;;;;;;4984401;28;20442;-95
2021/08/10 00:51:00;;;;;;;10.10;4.80;;;15.00;99.90;;;;;;4956038;28;20435;-96
2021/08/10 00:56:17;;;;;;;9.27;4.63;;;14.80;99.90;;;;;;4992234;23;20512;-95
2021/08/10 01:04:42;;;;;;;11.68;5.05;;;14.50;99.90;;;;;;5017076;23;20432;-96
2021/08/10 01:08:15;;;;;;;13.98;5.10;;;14.30;99.90;;;;;;5056018;23;20503;-94
2021/08/10 01:14:45;;;;;;;14.80;6.33;;;14.30;99.90;;;;;;5031017;23;20443;31
2021/08/10 01:17:38;;;;;;;7.75;4.47;;;14.30;99.90;;;;;;5340629;23;21108;-95
2021/08/10 01:21:16;;;;;;;;;;;;;;;;;;;;;
2021/08/10 06:31:46;;;;;;;5.28;2.40;;;19.50;99.90;;;;;;6020323;23;20379;-95
2021/08/10 06:40:16;;;;;;;4.93;2.00;;;25.30;99.90;;;;;;4983271;23;20768;-96
2021/08/10 06:48:16;;;;;;;3.13;1.95;;;26.60;98.80;;;;;;4994040;23;20440;-95
2021/08/10 06:50:45;;;;;;;3.88;2.22;;;26.20;98.70;;;;;;4962648;28;20428;-93
2021/08/10 06:53:25;;;;;;;3.20;2.30;;;25.70;99.50;;;;;;4960604;28;20943;-94
2021/08/10 06:55:53;;;;;;;5.93;2.42;;;25.10;99.10;;;;;;4962305;28;20447;-94
2021/08/10 06:58:20;;;;;;;5.57;2.30;;;24.40;99.40;;;;;;4962689;28;20439;-93
2021/08/10 07:00:47;;;;;;;4.00;2.22;;;23.60;99.90;;;;;;4974312;28;20435;-95
2021/08/10 07:03:42;;;;;;;4.55;2.38;;;23.30;99.90;;;;;;5391131;23;20586;-96
2021/08/10 07:06:11;;;;;;;3.63;2.10;;;23.10;99.90;;;;;;4960951;28;20416;-90
2021/08/10 07:08:38;;;;;;;5.28;2.30;;;23.20;99.90;;;;;;4963358;28;20424;-93
2021/08/10 07:11:06;;;;;;;5.13;2.53;;;23.30;99.30;;;;;;4970445;28;20523;-92
2021/08/10 07:13:33;;;;;;;3.70;2.17;;;23.40;99.30;;;;;;4968771;23;20540;-93
2021/08/10 07:16:00;;;;;;;3.90;2.50;;;23.20;98.70;;;;;;4952676;23;20658;-93
2021/08/10 07:18:27;;;;;;;3.08;2.25;;;23.20;99.60;;;;;;4944374;29;20444;-93
2021/08/10 07:20:55;;;;;;;5.13;2.45;;;23.20;99.90;;;;;;4943581;29;20438;-93
2021/08/10 07:23:21;;;;;;;3.10;2.00;;;23.10;99.10;;;;;;4942819;29;20413;-93
2021/08/10 07:25:49;;;;;;;3.10;2.20;;;23.00;99.60;;;;;;4943991;28;20438;-92
2021/08/10 07:28:17;;;;;;;3.33;2.30;;;22.70;99.50;;;;;;4943609;29;20430;-92
2021/08/10 07:30:44;;;;;;;6.05;2.40;;;22.50;99.90;;;;;;4959651;23;20438;-93
2021/08/10 07:33:11;;;;;;;5.07;2.30;;;22.50;99.90;;;;;;4961580;28;20444;-93
2021/08/10 07:35:38;;;;;;;2.95;2.17;;;22.30;99.90;;;;;;4961201;28;20420;-93
2021/08/10 07:38:05;;;;;;;5.82;2.25;;;22.20;99.90;;;;;;4962990;28;20412;-92
2021/08/10 07:40:32;;;;;;;4.18;2.55;;;22.00;99.90;;;;;;4962150;28;20448;-92
2021/08/10 07:42:59;;;;;;;5.07;2.50;;;21.80;99.90;;;;;;4960828;28;20451;-92
2021/08/10 07:45:26;;;;;;;4.18;2.20;;;21.80;99.90;;;;;;4963352;28;20432;-93
2021/08/10 07:47:54;;;;;;;4.18;2.38;;;21.70;99.90;;;;;;4961916;28;20783;-92
2021/08/10 07:50:21;;;;;;;5.70;2.33;;;21.60;99.90;;;;;;4964710;28;20435;-93
2021/08/10 07:52:48;;;;;;;3.75;2.45;;;21.80;99.90;;;;;;4978379;28;20412;-92
2021/08/10 07:55:16;;;;;;;4.15;2.38;;;22.00;99.90;;;;;;4970918;28;20416;-92
2021/08/10 07:57:43;;;;;;;4.57;2.58;;;21.90;99.90;;;;;;4960264;28;20939;-92
2021/08/10 08:00:11;;;;;;;3.95;2.53;;;21.70;99.90;;;;;;4961873;28;20456;-92
2021/08/10 08:02:38;;;;;;;3.65;2.20;;;21.40;99.90;;;;;;4960751;28;20903;-93
2021/08/10 08:05:05;;;;;;;3.28;2.30;;;21.50;99.90;;;;;;4960956;28;20424;-92
2021/08/10 08:07:33;;;;;;;6.53;2.55;;;21.60;99.90;;;;;;4963284;28;20428;-93
2021/08/10 08:10:12;;;;;;;3.67;2.22;;;21.50;99.90;;;;;;4980929;28;20427;-92
2021/08/10 08:12:39;;;;;;;3.22;2.25;;;21.60;99.90;;;;;;4961810;28;20779;-92
2021/08/10 08:15:10;;;;;;;4.15;2.38;;;21.80;99.90;;;;;;4960998;28;20435;-92
2021/08/10 08:17:37;;;;;;;3.87;2.30;;;21.80;99.90;;;;;;4970950;23;20470;-93
2021/08/10 08:20:14;;;;;;;4.38;2.33;;;21.90;99.90;;;;;;4963620;28;20463;-93
2021/08/10 08:22:41;;;;;;;4.68;2.30;;;21.80;99.90;;;;;;4963004;28;20420;-92
2021/08/10 08:25:08;;;;;;;3.42;2.20;;;21.80;99.90;;;;;;4962311;28;20440;-93
2021/08/10 08:27:36;;;;;;;4.07;2.50;;;21.70;99.90;;;;;;4964567;28;20526;-92
2021/08/10 08:30:05;;;;;;;4.25;2.20;;;21.70;99.90;;;;;;4965377;28;20427;-92
2021/08/10 08:32:32;;;;;;;2.80;2.05;;;21.90;99.90;;;;;;4961535;28;20428;-93
2021/08/10 08:34:59;;;;;;;3.25;2.10;;;22.20;99.90;;;;;;4967201;28;20931;-92
2021/08/10 08:37:26;;;;;;;4.13;2.20;;;22.50;99.90;;;;;;4967476;28;20416;-93
2021/08/10 08:39:53;;;;;;;4.97;2.20;;;22.70;99.90;;;;;;4975772;23;20440;-92
2021/08/10 08:42:22;;;;;;;3.35;2.25;;;23.00;99.90;;;;;;4967854;28;20432;-93
2021/08/10 08:44:49;;;;;;;5.40;2.33;;;23.30;99.90;;;;;;4968746;28;20447;-93
2021/08/10 08:47:23;;;;;;;4.88;2.13;;;23.20;99.90;;;;;;4969515;28;20431;-93
2021/08/10 08:49:54;;;;;;;6.05;2.40;;;22.90;99.90;;;;;;4970370;28;20431;-93
2021/08/10 08:52:30;;;;;;;4.38;2.22;;;22.70;99.90;;;;;;4968187;28;20428;-93
2021/08/10 08:55:15;;;;;;;4.33;2.10;;;22.40;99.90;;;;;;4970371;28;20432;-92
2021/08/10 08:57:42;;;;;;;5.30;2.30;;;22.30;99.90;;;;;;4969345;28;20435;-93
2021/08/10 09:00:29;;;;;;;3.92;2.33;;;22.50;99.90;;;;;;4967029;28;20967;-92
2021/08/10 09:02:56;;;;;;;3.90;2.25;;;22.60;99.90;;;;;;4967804;28;20414;-92
2021/08/10 09:05:24;;;;;;;4.75;2.50;;;22.70;99.50;;;;;;4966751;28;20503;-93
2021/08/10 09:07:55;;;;;;;4.65;2.40;;;22.80;97.60;;;;;;4970134;28;20451;-92
2021/08/10 09:10:29;;;;;;;8.27;2.33;;;23.20;99.90;;;;;;4974614;23;20431;-93
2021/08/10 09:12:57;;;;;;;4.15;2.50;;;23.20;99.90;;;;;;4974391;23;20459;-91
2021/08/10 09:15:44;;;;;;;5.10;2.20;;;23.10;99.90;;;;;;4968730;28;20492;-92
2021/08/10 09:18:17;;;;;;;31.02;4.05;;;23.00;99.90;;;;;;4969632;23;20429;-92
2021/08/10 09:21:09;;;;;;;3.40;2.17;;;23.00;99.90;;;;;;4967904;28;20425;-92
2021/08/10 09:23:56;;;;;;;4.88;2.25;;;23.00;99.90;;;;;;4974819;23;20431;-92
2021/08/10 09:26:31;;;;;;;4.53;2.53;;;23.00;99.40;;;;;;4968917;28;20462;-93
2021/08/10 09:28:59;;;;;;;4.93;2.45;;;23.00;99.90;;;;;;4976530;23;20415;-93
2021/08/10 09:31:34;;;;;;;8.27;2.30;;;22.90;99.90;;;;;;4976233;23;20484;-92
2021/08/10 09:34:22;;;;;;;5.38;2.20;;;23.00;99.10;;;;;;4971822;28;20458;-93
2021/08/10 09:36:50;;;;;;;4.20;2.30;;;23.00;99.50;;;;;;4983398;28;20416;-93
2021/08/10 09:39:36;;;;;;;5.43;2.60;;;23.00;99.00;;;;;;4967862;28;20448;-94
2021/08/10 09:42:12;;;;;;;5.80;2.20;;;22.80;99.90;;;;;;4963595;28;20428;-93
2021/08/10 09:44:56;;;;;;;3.92;2.60;;;22.80;99.90;;;;;;4966315;28;20428;-93
2021/08/10 09:47:39;;;;;;;5.05;2.60;;;22.90;99.60;;;;;;4976252;23;20443;-93
2021/08/10 09:50:26;;;;;;;4.68;2.42;;;23.10;99.90;;;;;;4971018;23;20411;-92
2021/08/10 09:52:53;;;;;;;5.45;2.42;;;23.20;98.90;;;;;;4945533;29;20434;-92
2021/08/10 09:55:20;;;;;;;5.00;2.47;;;23.30;99.20;;;;;;4954225;23;20433;-93
2021/08/10 09:58:02;;;;;;;3.72;2.35;;;23.40;99.30;;;;;;4947280;29;20417;-93
2021/08/10 10:00:42;;;;;;;6.43;2.50;;;23.80;98.60;;;;;;4952997;29;20444;-94
2021/08/10 10:03:26;;;;;;;5.53;2.60;;;24.10;97.50;;;;;;4946142;29;20929;-95
2021/08/10 10:05:54;;;;;;;5.13;2.40;;;24.20;99.50;;;;;;4953906;29;20426;-94
2021/08/10 10:08:25;;;;;;;6.27;2.60;;;24.00;97.80;;;;;;4951318;29;20430;-94
2021/08/10 10:10:54;;;;;;;5.20;2.50;;;23.80;99.90;;;;;;4952769;29;20433;-95
2021/08/10 10:13:23;;;;;;;6.32;2.60;;;23.70;98.90;;;;;;4951695;29;20512;-95
2021/08/10 10:15:51;;;;;;;4.38;2.35;;;23.60;99.90;;;;;;4954754;29;20449;-95
2021/08/10 10:18:22;;;;;;;5.05;2.58;;;23.60;97.80;;;;;;4948977;29;20414;-93
2021/08/10 10:20:50;;;;;;;5.43;2.70;;;23.50;96.70;;;;;;4935210;29;20453;-94
2021/08/10 10:23:22;;;;;;;4.70;2.80;;;23.40;95.40;;;;;;4951747;29;20430;-94
2021/08/10 10:25:52;;;;;;;4.32;2.70;;;23.40;99.90;;;;;;4951165;29;21040;-94
2021/08/10 10:28:19;;;;;;;4.47;2.90;;;23.70;97.00;;;;;;4952056;29;20488;-96
2021/08/10 10:30:49;;;;;;;4.25;2.35;;;23.80;97.20;;;;;;4948136;29;20438;-94
2021/08/10 10:33:17;;;;;;;4.47;2.90;;;23.90;99.40;;;;;;4948174;29;20430;-96
2021/08/10 10:35:46;;;;;;;7.93;2.92;;;24.10;97.00;;;;;;4945288;29;20433;-95
2021/08/10 10:38:14;;;;;;;4.40;2.53;;;24.10;98.50;;;;;;4940855;29;20436;-94
2021/08/10 10:40:41;;;;;;;4.70;2.50;;;24.10;98.70;;;;;;4949672;29;20448;-93
2021/08/10 10:43:08;;;;;;;3.97;2.77;;;24.00;97.90;;;;;;4952933;29;20429;-92
2021/08/10 10:45:40;;;;;;;4.57;2.83;;;24.00;94.30;;;;;;4949905;29;20434;-95
2021/08/10 10:48:26;;;;;;;3.38;2.28;;;24.30;99.90;;;;;;4950604;29;20508;-93
2021/08/10 10:51:14;;;;;;;5.90;2.42;;;24.60;96.00;;;;;;4949644;29;20430;-93
2021/08/10 10:53:45;;;;;;;6.22;2.60;;;24.70;92.50;;;;;;4948485;29;20437;-94
2021/08/10 10:56:31;;;;;;;4.43;2.30;;;24.40;90.20;;;;;;4950704;28;20425;-95
2021/08/10 10:59:22;;;;;;;5.70;2.67;;;24.10;90.00;;;;;;4963908;29;20838;-95
2021/08/10 11:01:51;;;;;;;4.15;2.65;;;24.10;90.30;;;;;;4954100;29;20953;-93
2021/08/10 11:04:20;;;;;;;4.55;2.63;;;24.30;92.70;;;;;;5009807;23;20448;-94
2021/08/10 11:06:55;;;;;;;6.38;2.70;;;24.50;94.80;;;;;;4947230;29;20777;-96
2021/08/10 11:09:37;;;;;;;5.97;2.40;;;24.60;96.60;;;;;;4943921;29;20945;-93
2021/08/10 11:12:25;;;;;;;4.82;2.60;;;24.80;90.80;;;;;;4945081;29;20426;-96
2021/08/10 11:14:54;;;;;;;5.23;2.40;;;24.80;91.80;;;;;;4929863;29;20434;-95
2021/08/10 11:17:24;;;;;;;5.00;2.53;;;24.80;86.00;;;;;;4950270;29;20489;-96
2021/08/10 11:19:58;;;;;;;4.35;2.40;;;24.80;91.40;;;;;;4979442;28;20434;-93
2021/08/10 11:22:34;;;;;;;3.42;2.50;;;24.90;90.30;;;;;;4969869;28;20454;-96
2021/08/10 11:25:23;;;;;;;3.50;2.55;;;24.80;90.40;;;;;;4935600;29;20503;-96
2021/08/10 11:27:50;;;;;;;5.63;2.73;;;24.90;85.30;;;;;;4949051;29;20437;-93
2021/08/10 11:30:46;;;;;;;3.75;2.42;;;24.90;91.50;;;;;;4963807;29;20484;-96
2021/08/10 11:33:40;;;;;;;4.22;2.75;;;25.20;90.90;;;;;;4959480;28;20512;-94
2021/08/10 11:36:13;;;;;;;4.65;2.50;;;25.40;91.20;;;;;;4958392;29;20438;-96
2021/08/10 11:38:52;;;;;;;4.15;2.58;;;25.40;89.50;;;;;;4957081;29;20437;-95
2021/08/10 11:41:29;;;;;;;4.43;2.33;;;25.50;88.00;;;;;;4958389;29;20507;-95
2021/08/10 11:44:03;;;;;;;4.88;2.42;;;25.60;91.70;;;;;;4958356;29;20826;-96
2021/08/10 11:46:36;;;;;;;4.80;2.50;;;25.70;85.60;;;;;;4958489;29;20429;-96
2021/08/10 11:49:29;;;;;;;4.45;2.55;;;25.80;90.10;;;;;;4959006;29;20426;-94
2021/08/10 11:51:58;;;;;;;6.40;3.03;;;26.10;85.30;;;;;;4991328;23;20475;-94
2021/08/10 11:54:58;;;;;;;4.13;2.55;;;26.30;84.50;;;;;;4990390;23;20409;-96
2021/08/10 11:57:26;;;;;;;4.43;2.60;;;26.50;82.70;;;;;;4965292;23;20454;-95
2021/08/10 12:00:12;;;;;;;5.25;2.65;;;26.60;86.80;;;;;;4970506;28;20436;-96
2021/08/10 12:22:24;;;;;;;4.37;2.80;;;27.60;74.70;;;;;;5269423;23;20463;-96
2021/08/10 12:25:01;;;;;;;4.17;2.73;;;27.70;72.80;;;;;;4965847;28;20453;-96
2021/08/10 12:27:31;;;;;;;4.50;2.80;;;27.80;73.10;;;;;;4963561;28;20424;-96
2021/08/10 12:30:02;;;;;;;7.00;3.15;;;28.00;75.00;;;;;;4963022;28;20503;-96
2021/08/10 12:32:47;;;;;;;5.40;2.90;;;28.50;84.60;;;;;;4979506;28;20813;-96
2021/08/10 12:35:27;;;;;;;5.43;3.20;;;28.90;74.30;;;;;;4961907;28;20429;-96
2021/08/10 12:38:23;;;;;;;3.30;2.60;;;29.00;70.60;;;;;;4992989;23;20442;-96
2021/08/10 12:40:53;;;;;;;5.30;2.80;;;28.70;65.30;;;;;;4969998;28;20424;-96
2021/08/10 12:43:39;;;;;;;4.30;3.00;;;28.40;67.40;;;;;;4980658;28;20428;-96
2021/08/10 12:46:29;;;;;;;4.45;2.63;;;28.50;67.00;;;;;;4961060;28;20424;-91
2021/08/10 12:49:13;;;;;;;5.53;2.70;;;28.80;68.50;;;;;;4957809;28;20432;-94
2021/08/10 12:51:53;;;;;;;4.93;2.67;;;28.90;65.00;;;;;;4958734;28;20439;-92
2021/08/10 12:54:22;;;;;;;3.73;2.80;;;29.10;60.30;;;;;;4958711;28;20431;-92
2021/08/10 12:56:50;;;;;;;3.55;2.50;;;29.10;61.30;;;;;;4959582;28;20903;-95
2021/08/10 12:59:18;;;;;;;3.13;2.42;;;29.00;60.70;;;;;;4958058;28;20424;-93
2021/08/10 13:01:46;;;;;;;6.00;2.75;;;29.10;62.80;;;;;;4969790;28;20419;-94
2021/08/10 13:04:14;;;;;;;4.80;2.95;;;29.30;63.30;;;;;;4972337;28;20424;-93
2021/08/10 13:06:41;;;;;;;6.22;2.60;;;29.60;67.40;;;;;;4975653;28;20436;-95
2021/08/10 13:09:08;;;;;;;4.63;2.70;;;29.80;64.90;;;;;;4957930;28;20428;-93
2021/08/10 13:11:36;;;;;;;4.22;2.50;;;30.10;60.90;;;;;;4957781;28;20420;-93
2021/08/10 13:14:05;;;;;;;3.92;2.70;;;29.90;59.80;;;;;;4957866;28;20440;-95
2021/08/10 13:16:35;;;;;;;7.45;2.97;;;29.90;61.20;;;;;;4968137;28;20419;-94
2021/08/10 13:19:17;;;;;;;8.57;2.97;;;29.90;62.90;;;;;;4977705;28;20510;-92
2021/08/10 13:21:52;;;;;;;5.07;2.63;;;29.90;67.70;;;;;;4988762;23;20825;-92
2021/08/10 13:24:23;;;;;;;4.57;2.65;;;29.90;60.30;;;;;;4965904;28;20416;-92
2021/08/10 13:26:52;;;;;;;3.63;2.70;;;29.80;58.20;;;;;;4967368;28;20432;-95
2021/08/10 13:29:20;;;;;;;8.45;2.60;;;29.80;60.30;;;;;;4965910;28;20432;-92
2021/08/10 13:31:53;;;;;;;4.55;2.63;;;29.80;61.20;;;;;;4969099;28;20437;-95
2021/08/10 13:37:37;;;;;;;8.98;2.83;;;29.80;60.90;;;;;;5092259;23;20784;-96
2021/08/10 13:40:14;;;;;;;4.32;2.72;;;29.90;63.30;;;;;;4966756;28;20436;-96
2021/08/10 13:43:01;;;;;;;4.63;2.60;;;30.30;60.00;;;;;;4967073;28;20443;-96
2021/08/10 13:49:07;;;;;;;4.63;2.57;;;30.50;61.50;;;;;;5462827;23;20420;-96
2021/08/10 13:55:29;;;;;;;3.80;2.70;;;30.70;62.70;;;;;;5421723;23;20467;31
2021/08/10 13:58:01;;;;;;;5.53;2.65;;;31.20;61.20;;;;;;4997019;23;20430;-96
2021/08/10 14:00:29;;;;;;;5.10;2.85;;;31.40;62.40;;;;;;4949824;29;20442;-96
2021/08/10 14:02:56;;;;;;;4.75;2.55;;;31.50;63.20;;;;;;4946006;29;20774;-96
2021/08/10 14:05:35;;;;;;;5.57;2.70;;;31.50;62.00;;;;;;4943223;29;20774;-94
2021/08/10 14:42:12;;;;;;;4.38;2.33;;;32.20;57.00;;;;;;5742919;23;20402;31
2021/08/10 14:44:59;;;;;;;3.85;2.40;;;32.20;59.00;;;;;;4917835;29;20439;-96
2021/08/10 14:47:45;;;;;;;4.00;2.10;;;32.20;57.20;;;;;;4897093;29;20469;-94
2021/08/10 14:50:13;;;;;;;4.97;2.40;;;32.10;58.30;;;;;;4888127;29;20453;-94
2021/08/10 14:52:43;;;;;;;5.70;2.30;;;32.10;57.70;;;;;;4887868;29;20435;-96
2021/08/10 14:55:11;;;;;;;5.60;2.20;;;31.50;55.30;;;;;;4888306;29;20494;-93
2021/08/10 14:57:38;;;;;;;5.20;2.50;;;31.20;58.30;;;;;;4894267;29;20437;-92
2021/08/10 15:00:06;;;;;;;4.10;2.17;;;31.20;58.80;;;;;;4890093;29;20447;-94
2021/08/10 15:26:59;;;;;;;7.50;2.60;;;29.20;62.30;;;;;;2807503;23;20613;-94
2021/08/10 15:29:26;;;;;;;5.75;2.40;;;29.40;62.80;;;;;;4935534;29;20772;-89
2021/08/10 15:31:53;;;;;;;7.35;2.50;;;29.30;61.60;;;;;;4937524;29;20907;-90
2021/08/10 15:34:22;;;;;;;3.53;2.30;;;29.40;64.00;;;;;;4936051;29;20432;-90
2021/08/10 15:36:48;;;;;;;5.43;2.50;;;29.50;65.10;;;;;;4937391;29;20502;-89
2021/08/10 15:39:15;;;;;;;4.10;2.50;;;29.70;61.50;;;;;;4936440;29;20518;-90
2021/08/10 15:41:42;;;;;;;5.93;2.47;;;29.80;61.70;;;;;;4936013;29;20499;-90
2021/08/10 15:44:09;;;;;;;4.75;2.78;;;29.90;60.20;;;;;;4935627;29;20764;-89
2021/08/10 15:46:36;;;;;;;4.65;2.60;;;29.20;62.10;;;;;;4936502;29;20951;-90
2021/08/10 15:49:03;;;;;;;4.40;2.28;;;28.80;62.30;;;;;;4936098;29;20974;-90
2021/08/10 15:51:30;;;;;;;5.32;2.40;;;29.10;62.40;;;;;;4936256;29;20435;-89
2021/08/10 15:53:57;;;;;;;3.45;2.30;;;29.60;63.30;;;;;;4936045;29;20463;-90
2021/08/10 15:56:25;;;;;;;5.53;2.60;;;29.90;61.10;;;;;;4936693;29;20420;-89
2021/08/10 15:58:52;;;;;;;4.88;2.35;;;30.10;63.40;;;;;;4936103;29;20439;-90
2021/08/10 16:01:22;;;;;;;3.20;2.27;;;30.10;63.20;;;;;;4936243;29;20447;-95
2021/08/10 16:03:50;;;;;;;5.78;2.15;;;29.80;57.30;;;;;;4942336;29;20945;-96
2021/08/10 16:06:18;;;;;;;7.45;2.22;;;29.60;57.80;;;;;;4906726;29;20455;-95
2021/08/10 16:08:47;;;;;;;3.85;2.20;;;29.20;58.60;;;;;;5031636;23;20407;-96
2021/08/10 16:11:15;;;;;;;4.00;2.22;;;29.20;59.10;;;;;;4961682;28;20468;-95
2021/08/10 16:13:43;;;;;;;6.90;2.10;;;29.20;61.50;;;;;;4959706;28;20516;-96
2021/08/10 16:16:10;;;;;;;4.97;2.30;;;29.20;58.60;;;;;;4960380;28;20434;-96
2021/08/10 16:18:38;;;;;;;3.85;2.30;;;29.20;58.80;;;;;;4960062;28;20991;-95
2021/08/10 16:21:05;;;;;;;3.72;2.30;;;29.10;60.60;;;;;;4960797;28;20467;-96
2021/08/10 16:23:33;;;;;;;4.50;2.20;;;29.40;60.10;;;;;;4960306;28;20424;-95
2021/08/10 16:26:00;;;;;;;6.47;2.30;;;29.10;61.50;;;;;;4969779;28;20408;-95
2021/08/10 16:28:27;;;;;;;4.15;2.40;;;28.60;61.40;;;;;;4976903;28;20432;-95
2021/08/10 16:30:54;;;;;;;7.63;2.25;;;28.10;61.80;;;;;;4963856;28;20911;-96
2021/08/10 16:33:21;;;;;;;4.72;2.45;;;27.80;60.50;;;;;;4961512;28;20491;-95
2021/08/10 16:35:49;;;;;;;5.13;2.30;;;27.30;63.40;;;;;;4961607;28;20456;-95
2021/08/10 16:38:16;;;;;;;6.55;2.47;;;27.40;64.30;;;;;;4961993;28;20428;-95
2021/08/10 16:40:56;;;;;;;4.50;2.42;;;27.50;63.60;;;;;;4982452;28;20497;-95
2021/08/10 16:43:31;;;;;;;6.07;2.50;;;27.50;65.60;;;;;;4967782;28;20432;-96
2021/08/10 16:45:59;;;;;;;4.10;2.50;;;27.20;65.40;;;;;;4961416;28;20431;-95
2021/08/10 16:53:57;;;;;;;3.90;2.30;;;27.20;66.80;;;;;;4944595;29;20513;-96
2021/08/10 16:56:39;;;;;;;3.40;2.33;;;27.30;66.90;;;;;;4941983;29;20843;-96
2021/08/10 17:05:38;;;;;;;4.40;2.50;;;27.50;65.40;;;;;;5107571;23;20495;-96
2021/08/10 17:12:23;;;;;;;4.35;2.40;;;27.20;65.70;;;;;;4940965;29;20422;-96
2021/08/10 17:15:48;;;;;;;5.13;2.70;;;26.90;67.10;;;;;;4941584;29;20492;-96
2021/08/10 17:19:42;;;;;;;6.53;2.53;;;26.80;68.60;;;;;;4938885;29;20520;-96
2021/08/10 17:22:37;;;;;;;6.60;2.58;;;26.40;71.90;;;;;;4922004;29;20538;-96
2021/08/10 17:25:25;;;;;;;5.95;2.70;;;25.80;72.10;;;;;;4923114;29;20966;-96
2021/08/10 17:28:14;;;;;;;6.03;2.83;;;25.30;72.50;;;;;;4919018;29;20425;-95
2021/08/10 17:30:43;;;;;;;5.15;2.80;;;24.70;78.60;;;;;;4904271;29;20440;-95
2021/08/10 17:33:15;;;;;;;5.63;2.80;;;24.20;76.90;;;;;;4905716;29;20945;-95
2021/08/10 17:35:47;;;;;;;6.97;2.58;;;23.60;78.90;;;;;;4904276;29;20429;-93
2021/08/10 17:38:15;;;;;;;6.90;3.08;;;23.20;83.90;;;;;;4903752;29;20767;-95
2021/08/10 17:40:46;;;;;;;8.88;2.95;;;22.80;86.70;;;;;;4911062;29;20437;-96
2021/08/10 17:43:13;;;;;;;6.87;3.10;;;22.30;86.90;;;;;;4965803;28;20503;-94
2021/08/10 17:45:41;;;;;;;6.50;3.20;;;22.10;85.50;;;;;;4964704;28;20424;-94
2021/08/10 17:48:08;;;;;;;6.47;3.00;;;22.00;86.10;;;;;;4962730;28;20432;-95
2021/08/10 17:50:35;;;;;;;7.90;3.00;;;22.00;86.20;;;;;;4960659;28;20424;-94
2021/08/10 17:53:02;;;;;;;6.90;2.97;;;21.90;90.20;;;;;;4960826;28;20454;-94
2021/08/10 17:55:29;;;;;;;6.82;3.15;;;21.80;90.80;;;;;;4962244;28;20451;-95
2021/08/10 17:57:58;;;;;;;5.35;3.10;;;21.60;90.80;;;;;;4963928;28;20523;-96
2021/08/10 18:00:26;;;;;;;5.32;3.33;;;21.50;92.90;;;;;;4948554;28;20460;-95
2021/08/10 18:02:53;;;;;;;7.60;3.30;;;21.30;93.90;;;;;;4961567;28;20507;-94
2021/08/10 18:05:24;;;;;;;8.27;3.13;;;21.20;95.60;;;;;;4968809;28;20491;-93
2021/08/10 18:07:52;;;;;;;6.43;2.95;;;21.20;96.20;;;;;;4974006;28;20439;-95
2021/08/10 18:10:20;;;;;;;7.97;3.30;;;21.10;97.20;;;;;;4981288;28;20452;-95
2021/08/10 18:12:47;;;;;;;4.15;3.13;;;21.00;98.70;;;;;;4972320;28;20431;-96
2021/08/10 18:15:14;;;;;;;6.45;3.47;;;20.80;97.90;;;;;;4968153;28;20438;-95
2021/08/10 18:18:17;;;;;;;6.32;3.20;;;20.60;99.90;;;;;;4970324;28;20455;-96
2021/08/10 18:21:08;;;;;;;6.32;3.22;;;20.50;99.90;;;;;;4911233;29;20429;-91
2021/08/10 18:23:42;;;;;;;7.85;3.50;;;20.20;99.90;;;;;;4922749;29;20428;-94
2021/08/10 18:26:17;;;;;;;8.45;3.10;;;20.00;99.90;;;;;;4915202;29;20430;-95
2021/08/10 18:28:49;;;;;;;5.38;3.22;;;20.00;99.90;;;;;;4912025;29;20433;-95
2021/08/10 18:31:16;;;;;;;9.52;3.72;;;20.00;99.90;;;;;;5132396;23;20783;-96
2021/08/10 18:33:43;;;;;;;6.25;3.20;;;19.70;99.90;;;;;;4962440;28;20450;-94
2021/08/10 18:36:17;;;;;;;10.25;3.33;;;19.50;99.90;;;;;;4963416;28;20955;-95
2021/08/10 18:39:18;;;;;;;;;;;;;;;;;;;;;
